Time;durP1;ratioP1;P1;durP2;ratioP2;P2;SDS_P1;SDS_P2;PMS_P1;PMS_P2;Temp;Humidity;BMP_temperature;BMP_pressure;BME280_temperature;BME280_humidity;BME280_pressure;Samples;Min_cycle;Max_cycle;Signal;HPM_P1;HPM_P2
2021/08/18 00:00:30;;;;;;;0.20;0.20;;;;;;;13.19;95.26;99003.72;5066251;28;20108;-67
2021/08/18 00:02:56;;;;;;;0.20;0.20;;;;;;;13.16;95.43;98993.44;5065942;28;20063;-67
2021/08/18 00:05:21;;;;;;;0.20;0.20;;;;;;;13.23;95.42;99020.06;5066030;28;20031;-68
2021/08/18 00:07:46;;;;;;;0.30;0.30;;;;;;;13.23;95.51;99014.84;5065945;28;20113;-66
2021/08/18 00:10:13;;;;;;;0.20;0.20;;;;;;;13.24;95.56;99024.38;5066232;28;20102;-66
2021/08/18 00:12:40;;;;;;;0.20;0.20;;;;;;;13.23;95.49;99015.69;5065550;28;20032;-67
2021/08/18 00:15:07;;;;;;;0.20;0.20;;;;;;;13.19;95.50;99016.75;5064689;28;20027;-67
2021/08/18 00:17:33;;;;;;;0.25;0.25;;;;;;;13.20;95.46;99021.03;5065919;28;20029;-69
2021/08/18 00:19:58;;;;;;;0.20;0.20;;;;;;;13.18;95.40;99012.44;5065802;28;20067;-70
2021/08/18 00:22:24;;;;;;;0.20;0.20;;;;;;;13.17;95.56;99002.06;5065753;28;20025;-71
2021/08/18 00:24:49;;;;;;;0.20;0.20;;;;;;;13.26;95.61;99014.72;5065695;28;20021;-72
2021/08/18 00:27:14;;;;;;;0.20;0.20;;;;;;;13.29;95.20;99014.59;5066079;28;20020;-72
2021/08/18 00:29:40;;;;;;;0.20;0.20;;;;;;;13.25;95.38;98997.41;5065639;28;20025;-73
2021/08/18 00:32:07;;;;;;;0.20;0.20;;;;;;;13.33;95.26;99003.13;5065810;28;20058;-71
2021/08/18 00:34:33;;;;;;;0.20;0.20;;;;;;;13.35;95.25;98997.84;5065677;28;20078;-74
2021/08/18 00:36:58;;;;;;;0.20;0.20;;;;;;;13.35;95.32;98993.50;5065754;28;20493;-74
2021/08/18 00:39:24;;;;;;;0.20;0.20;;;;;;;13.27;95.00;98969.53;5064238;28;20439;-75
2021/08/18 00:41:50;;;;;;;0.20;0.20;;;;;;;13.27;95.04;98972.13;5065278;28;20021;-75
2021/08/18 00:44:15;;;;;;;0.20;0.20;;;;;;;13.23;95.04;98978.34;5065584;28;20025;-74
2021/08/18 00:46:54;;;;;;;0.20;0.20;;;;;;;13.22;95.34;98980.13;5065251;28;20113;-73
2021/08/18 00:49:21;;;;;;;0.20;0.20;;;;;;;13.25;95.10;98993.03;5065680;28;20047;-73
2021/08/18 00:51:48;;;;;;;0.20;0.20;;;;;;;13.24;95.18;98986.13;5065222;28;20063;-73
2021/08/18 00:54:14;;;;;;;0.20;0.20;;;;;;;13.26;95.13;98989.50;5065980;28;20052;-72
2021/08/18 00:56:40;;;;;;;0.20;0.20;;;;;;;13.25;95.36;98979.16;5065432;28;20028;-73
2021/08/18 00:59:07;;;;;;;0.20;0.20;;;;;;;13.24;95.12;98988.72;5065283;28;20013;-72
2021/08/18 01:01:33;;;;;;;0.20;0.20;;;;;;;13.26;95.36;98992.13;5063631;28;20020;-70
2021/08/18 01:03:59;;;;;;;0.20;0.20;;;;;;;13.27;95.07;98998.19;5065151;28;20067;-70
2021/08/18 01:06:25;;;;;;;0.20;0.20;;;;;;;13.24;95.19;98987.91;5065248;28;20022;-71
2021/08/18 01:08:50;;;;;;;0.20;0.20;;;;;;;13.31;95.09;98996.28;5063394;28;20067;-71
2021/08/18 01:11:15;;;;;;;0.20;0.20;;;;;;;13.33;95.07;98992.72;5065042;28;20025;-70
2021/08/18 01:13:41;;;;;;;0.20;0.20;;;;;;;13.36;95.27;99000.41;5063445;28;20021;-71
2021/08/18 01:16:06;;;;;;;0.20;0.20;;;;;;;13.38;95.20;98998.59;5064594;28;20504;-70
2021/08/18 01:18:32;;;;;;;0.20;0.20;;;;;;;13.42;95.38;98993.22;5064768;28;20017;-70
2021/08/18 01:20:57;;;;;;;0.20;0.20;;;;;;;13.44;95.54;98987.03;5064770;28;20052;-70
2021/08/18 01:23:22;;;;;;;0.20;0.20;;;;;;;13.41;95.33;98981.94;5064700;28;20028;-70
2021/08/18 01:25:48;;;;;;;0.20;0.20;;;;;;;13.43;95.36;98974.91;5064484;28;20036;-69
2021/08/18 01:28:14;;;;;;;0.20;0.20;;;;;;;13.50;95.39;98992.00;5064944;28;20017;-68
2021/08/18 01:30:40;;;;;;;0.20;0.20;;;;;;;13.52;95.29;98991.94;5064591;28;20028;-71
2021/08/18 01:33:09;;;;;;;0.20;0.20;;;;;;;13.52;95.38;98994.53;5064043;28;20021;-71
2021/08/18 01:35:54;;;;;;;0.20;0.20;;;;;;;13.52;95.16;98991.94;5062738;28;20396;-72
2021/08/18 01:38:21;;;;;;;0.20;0.20;;;;;;;13.50;95.36;98991.13;5064351;28;20027;-73
2021/08/18 01:40:53;;;;;;;0.20;0.20;;;;;;;13.49;95.19;98984.22;5064385;28;20028;-73
2021/08/18 01:43:22;;;;;;;0.20;0.20;;;;;;;13.53;95.37;98988.41;5064395;28;20106;-73
2021/08/18 01:45:49;;;;;;;0.20;0.20;;;;;;;13.60;95.69;98991.59;5064089;28;20025;-70
2021/08/18 01:48:23;;;;;;;0.20;0.20;;;;;;;13.62;95.72;98980.22;5064034;28;20081;-71
2021/08/18 01:50:53;;;;;;;0.20;0.20;;;;;;;13.65;95.69;98973.16;5064007;28;20032;-72
2021/08/18 01:53:30;;;;;;;0.20;0.20;;;;;;;13.72;95.95;98983.22;5064326;28;20036;-72
2021/08/18 01:55:57;;;;;;;0.20;0.20;;;;;;;13.76;95.80;98978.72;5064013;28;20028;-72
2021/08/18 01:58:22;;;;;;;0.20;0.20;;;;;;;13.79;95.79;98970.78;5064199;28;20029;-72
2021/08/18 02:00:48;;;;;;;0.20;0.20;;;;;;;13.82;95.82;98973.25;5064098;28;20021;-71
2021/08/18 02:03:13;;;;;;;0.20;0.20;;;;;;;13.84;95.71;98974.03;5063914;28;20059;-70
2021/08/18 02:05:38;;;;;;;0.20;0.20;;;;;;;13.87;95.60;98976.50;5063957;28;20025;-70
2021/08/18 02:08:04;;;;;;;0.20;0.20;;;;;;;13.91;95.59;98971.13;5063596;28;20076;-70
2021/08/18 02:10:30;;;;;;;0.20;0.20;;;;;;;13.83;95.58;98954.09;5063868;28;20028;-72
2021/08/18 02:12:55;;;;;;;0.20;0.20;;;;;;;13.95;95.63;98970.94;5063557;28;20650;-71
2021/08/18 02:15:30;;;;;;;0.20;0.20;;;;;;;13.97;95.52;98970.84;5062411;28;20017;-71
2021/08/18 02:17:56;;;;;;;0.20;0.20;;;;;;;13.98;95.37;98970.78;5063777;28;20017;-71
2021/08/18 02:20:26;;;;;;;0.20;0.20;;;;;;;13.99;95.35;98969.84;5063755;28;20025;-71
2021/08/18 02:22:52;;;;;;;0.20;0.20;;;;;;;14.02;95.32;98975.84;5063647;28;20071;-71
2021/08/18 02:25:17;;;;;;;0.20;0.20;;;;;;;13.99;95.43;98966.41;5063569;28;20085;-69
2021/08/18 02:27:43;;;;;;;0.20;0.20;;;;;;;14.03;95.07;98972.31;5063657;28;20081;-71
2021/08/18 02:30:10;;;;;;;0.20;0.20;;;;;;;14.04;95.13;98969.66;5063609;28;20029;-70
2021/08/18 02:32:36;;;;;;;0.20;0.20;;;;;;;14.02;94.91;98968.88;5063396;28;20240;-70
2021/08/18 02:35:02;;;;;;;0.20;0.20;;;;;;;13.98;95.18;98960.34;5063562;28;20056;-68
2021/08/18 02:37:27;;;;;;;0.20;0.20;;;;;;;13.95;94.92;98957.03;5063484;28;20025;-69
2021/08/18 02:39:53;;;;;;;0.20;0.20;;;;;;;13.96;95.03;98967.38;5063321;28;20020;-68
2021/08/18 02:42:18;;;;;;;0.20;0.20;;;;;;;13.95;94.90;98959.63;5063292;28;20052;-69
2021/08/18 02:44:46;;;;;;;0.20;0.20;;;;;;;14.00;95.22;98968.09;5063205;28;20082;-67
2021/08/18 02:47:12;;;;;;;0.20;0.20;;;;;;;14.04;95.16;98972.25;5062299;28;20033;-66
2021/08/18 02:49:37;;;;;;;0.20;0.20;;;;;;;14.04;95.13;98967.03;5063141;28;20029;-66
2021/08/18 02:52:03;;;;;;;0.20;0.20;;;;;;;14.06;94.97;98959.13;5063101;28;20025;-66
2021/08/18 02:54:28;;;;;;;0.20;0.20;;;;;;;14.08;94.89;98960.78;5063225;28;20025;-65
2021/08/18 02:56:54;;;;;;;0.20;0.20;;;;;;;14.08;94.88;98952.09;5063242;28;20024;-65
2021/08/18 02:59:20;;;;;;;0.20;0.20;;;;;;;14.09;94.89;98952.00;5063044;28;20029;-66
2021/08/18 03:01:45;;;;;;;0.20;0.20;;;;;;;14.05;95.01;98953.09;5063014;28;20079;-65
2021/08/18 03:04:11;;;;;;;0.20;0.20;;;;;;;14.08;94.83;98958.16;5063097;28;20056;-66
2021/08/18 03:06:36;;;;;;;0.20;0.20;;;;;;;14.05;94.79;98955.69;5062977;28;20053;-66
2021/08/18 03:09:01;;;;;;;0.20;0.20;;;;;;;14.03;94.82;98967.09;5062892;28;20041;-66
2021/08/18 03:11:27;;;;;;;0.20;0.20;;;;;;;13.98;95.00;98954.28;5062889;28;20021;-67
2021/08/18 03:13:52;;;;;;;0.20;0.20;;;;;;;13.93;94.82;98957.09;5062902;28;20025;-66
2021/08/18 03:16:17;;;;;;;0.20;0.20;;;;;;;13.90;95.18;98954.63;5063132;28;20233;-66
2021/08/18 03:18:43;;;;;;;0.20;0.20;;;;;;;13.88;94.88;98952.09;5063012;28;20024;-66
2021/08/18 03:21:08;;;;;;;0.20;0.20;;;;;;;13.89;95.18;98955.56;5062962;28;20033;-66
2021/08/18 03:23:33;;;;;;;0.20;0.20;;;;;;;13.88;94.86;98959.91;5063072;28;20234;-67
2021/08/18 03:25:59;;;;;;;0.20;0.20;;;;;;;13.81;95.14;98950.69;5062619;28;20025;-66
2021/08/18 03:28:24;;;;;;;0.20;0.20;;;;;;;13.88;95.32;98956.47;5061763;28;20029;-66
2021/08/18 03:30:50;;;;;;;0.20;0.20;;;;;;;13.87;95.43;98955.63;5062285;28;20088;-66
2021/08/18 03:33:15;;;;;;;0.30;0.30;;;;;;;13.88;95.51;98954.69;5062806;28;20204;-66
2021/08/18 03:35:41;;;;;;;0.20;0.20;;;;;;;13.89;95.34;98958.16;5063016;28;20025;-66
2021/08/18 03:38:06;;;;;;;0.20;0.20;;;;;;;13.90;95.37;98957.22;5062746;28;20025;-66
2021/08/18 03:40:31;;;;;;;0.20;0.20;;;;;;;13.92;95.35;98951.94;5062785;28;20013;-68
2021/08/18 03:42:57;;;;;;;0.20;0.20;;;;;;;13.93;95.37;98956.28;5062640;28;20049;-66
2021/08/18 03:45:22;;;;;;;0.20;0.20;;;;;;;13.90;95.40;98957.22;5062697;28;20021;-67
2021/08/18 03:47:47;;;;;;;0.20;0.20;;;;;;;13.91;95.45;98956.34;5062819;28;20021;-67
2021/08/18 03:50:13;;;;;;;0.20;0.20;;;;;;;13.93;95.55;98957.09;5062726;28;20054;-66
2021/08/18 03:52:42;;;;;;;0.20;0.20;;;;;;;13.94;95.58;98953.59;5062761;28;20048;-66
2021/08/18 03:55:10;;;;;;;0.20;0.20;;;;;;;13.99;95.68;98962.03;5062810;28;20070;-66
2021/08/18 03:57:36;;;;;;;0.20;0.20;;;;;;;13.97;95.34;98952.59;5062565;28;20043;-67
2021/08/18 04:00:02;;;;;;;0.20;0.20;;;;;;;13.98;95.72;98952.53;5065829;28;20029;-66
2021/08/18 04:02:27;;;;;;;0.20;0.20;;;;;;;14.05;95.64;98963.53;5064690;28;20048;-66
2021/08/18 04:04:52;;;;;;;0.20;0.20;;;;;;;14.09;95.90;98957.25;5064803;28;20042;-66
2021/08/18 04:07:19;;;;;;;0.20;0.20;;;;;;;14.09;95.46;98967.69;5066355;28;20052;-66
2021/08/18 04:09:45;;;;;;;0.20;0.20;;;;;;;14.05;95.40;98953.09;5064820;28;20112;-66
2021/08/18 04:12:10;;;;;;;0.20;0.20;;;;;;;14.15;95.53;98965.72;5066176;28;20056;-66
2021/08/18 04:14:35;;;;;;;0.20;0.20;;;;;;;14.17;95.75;98961.28;5066118;28;20033;-66
2021/08/18 04:17:01;;;;;;;0.20;0.20;;;;;;;14.23;95.42;98963.59;5065911;28;20027;-66
2021/08/18 04:19:26;;;;;;;0.20;0.20;;;;;;;14.30;95.89;98974.56;5065776;28;20036;-66
2021/08/18 04:21:51;;;;;;;0.20;0.20;;;;;;;14.38;96.02;98970.69;5065897;28;20029;-66
2021/08/18 04:24:17;;;;;;;0.20;0.20;;;;;;;14.52;96.09;98963.94;5065930;28;20096;-65
2021/08/18 04:26:43;;;;;;;0.20;0.20;;;;;;;14.81;96.56;98969.56;5065801;28;20052;-65
2021/08/18 04:29:08;;;;;;;0.20;0.20;;;;;;;15.22;97.28;98964.97;5065841;28;20094;-66
2021/08/18 04:31:33;;;;;;;0.20;0.20;;;;;;;15.80;98.01;98968.06;5065819;28;20029;-66
2021/08/18 04:33:59;;;;;;;0.20;0.20;;;;;;;16.43;99.12;98967.34;5065617;28;20136;-64
2021/08/18 04:36:24;;;;;;;0.20;0.20;;;;;;;17.04;100.00;98962.16;5065763;28;20024;-64
2021/08/18 04:38:50;;;;;;;0.10;0.10;;;;;;;17.58;100.00;98968.63;5065637;28;20039;-65
2021/08/18 04:41:15;;;;;;;0.20;0.20;;;;;;;17.99;100.00;98965.31;5065327;28;20025;-65
2021/08/18 04:43:40;;;;;;;0.20;0.20;;;;;;;18.33;100.00;98964.03;5065309;28;20512;-65
2021/08/18 04:46:06;;;;;;;0.20;0.20;;;;;;;18.83;100.00;98960.00;5065555;28;20025;-65
2021/08/18 04:48:32;;;;;;;0.20;0.20;;;;;;;19.31;100.00;98963.88;5065148;28;20027;-65
2021/08/18 04:50:57;;;;;;;0.20;0.20;;;;;;;19.78;100.00;98973.84;5065199;28;20029;-70
2021/08/18 04:53:23;;;;;;;0.10;0.10;;;;;;;20.12;99.75;98966.22;5065330;28;20462;-67
2021/08/18 04:55:49;;;;;;;0.10;0.10;;;;;;;20.50;99.58;98964.38;5065144;28;20023;-68
2021/08/18 04:58:14;;;;;;;0.10;0.10;;;;;;;20.86;99.15;98966.19;5065227;28;20035;-68
2021/08/18 05:00:39;;;;;;;0.10;0.10;;;;;;;21.18;98.30;98957.69;5065254;28;20059;-68
2021/08/18 05:03:05;;;;;;;0.10;0.10;;;;;;;21.57;98.16;98961.78;5064879;28;20275;-67
2021/08/18 05:05:30;;;;;;;0.10;0.10;;;;;;;21.67;95.87;98957.47;5064927;28;20112;-68
2021/08/18 05:07:58;;;;;;;0.10;0.10;;;;;;;21.87;95.46;98961.22;5064604;28;20041;-68
2021/08/18 05:10:24;;;;;;;0.10;0.10;;;;;;;22.16;95.20;98960.69;5064088;28;20021;-69
2021/08/18 05:12:50;;;;;;;0.10;0.10;;;;;;;22.43;94.54;98961.22;5064951;28;20052;-69
2021/08/18 05:15:15;;;;;;;0.10;0.10;;;;;;;22.77;93.93;98966.41;5065082;28;20016;-68
2021/08/18 05:17:44;;;;;;;0.10;0.10;;;;;;;23.02;92.95;98956.41;5064774;28;20036;-68
2021/08/18 05:20:09;;;;;;;0.20;0.20;;;;;;;23.28;91.96;98960.47;5064930;28;20028;-69
2021/08/18 05:22:35;;;;;;;0.10;0.10;;;;;;;23.58;89.46;98965.94;5064723;28;20029;-69
2021/08/18 05:25:00;;;;;;;0.60;0.60;;;;;;;23.82;89.69;98965.59;5062977;28;20025;-69
2021/08/18 05:27:25;;;;;;;0.10;0.10;;;;;;;24.15;89.08;98960.16;5064621;28;20032;-67
2021/08/18 05:29:51;;;;;;;0.10;0.10;;;;;;;24.30;86.61;98957.94;5064093;28;20020;-65
2021/08/18 05:32:16;;;;;;;0.98;0.98;;;;;;;24.35;86.76;98953.06;5064184;28;20052;-65
2021/08/18 05:34:41;;;;;;;0.10;0.10;;;;;;;24.50;87.85;98940.25;5063981;28;20025;-65
2021/08/18 05:37:07;;;;;;;0.10;0.10;;;;;;;24.89;88.43;98941.19;5064410;28;20017;-66
2021/08/18 05:39:32;;;;;;;0.10;0.10;;;;;;;25.10;85.41;98937.53;5064272;28;20020;-66
2021/08/18 05:41:57;;;;;;;0.10;0.10;;;;;;;25.32;85.27;98935.53;5063816;28;20044;-66
2021/08/18 05:44:23;;;;;;;0.10;0.10;;;;;;;25.39;86.28;98933.94;5064223;28;20021;-66
2021/08/18 05:46:49;;;;;;;0.20;0.20;;;;;;;25.71;83.79;98930.06;5064001;28;20680;-66
2021/08/18 05:49:20;;;;;;;0.10;0.10;;;;;;;25.84;84.78;98920.91;5063908;28;20032;-66
2021/08/18 05:51:49;;;;;;;0.20;0.20;;;;;;;26.05;86.26;98919.81;5064315;28;20028;-63
2021/08/18 05:54:14;;;;;;;0.10;0.10;;;;;;;26.47;87.35;98921.06;5064140;28;20044;-65
2021/08/18 05:56:40;;;;;;;4.13;1.35;;;;;;;26.78;84.46;98915.31;5063667;28;20029;-65
2021/08/18 05:59:05;;;;;;;3.05;1.10;;;;;;;26.96;82.48;98914.44;5064031;28;20017;-64
2021/08/18 06:01:31;;;;;;;4.82;1.55;;;;;;;27.07;80.65;98910.72;5064002;28;20027;-65
2021/08/18 06:03:56;;;;;;;6.25;1.05;;;;;;;27.27;80.85;98915.81;5063894;28;20041;-65
2021/08/18 06:06:21;;;;;;;3.40;1.30;;;;;;;27.52;78.95;98918.59;5063766;28;20079;-66
2021/08/18 06:08:47;;;;;;;3.00;1.58;;;;;;;27.63;79.33;98912.97;5063491;28;20055;-66
2021/08/18 06:11:12;;;;;;;4.18;1.50;;;;;;;27.80;74.70;98913.06;5063940;28;20028;-66
2021/08/18 06:13:37;;;;;;;4.35;1.30;;;;;;;27.74;76.26;98913.69;5063696;28;20052;-65
2021/08/18 06:16:03;;;;;;;4.70;1.67;;;;;;;27.60;74.39;98910.66;5063626;28;20535;-65
2021/08/18 06:18:28;;;;;;;3.20;1.40;;;;;;;27.50;76.11;98899.25;5063604;28;20036;-65
2021/08/18 06:20:54;;;;;;;2.28;1.40;;;;;;;27.55;76.76;98908.47;5063691;28;20020;-66
2021/08/18 06:23:22;;;;;;;3.80;1.10;;;;;;;27.74;76.44;98911.03;5063515;28;20029;-65
2021/08/18 06:25:48;;;;;;;3.50;1.10;;;;;;;27.87;72.46;98908.75;5063458;28;20028;-66
2021/08/18 06:28:14;;;;;;;8.68;1.13;;;;;;;27.65;71.84;98908.34;5063543;28;20021;-66
2021/08/18 06:30:39;;;;;;;3.47;1.02;;;;;;;27.66;72.63;98904.66;5063653;28;20086;-66
2021/08/18 06:33:05;;;;;;;3.70;1.20;;;;;;;27.80;72.79;98913.06;5063238;28;20032;-66
2021/08/18 06:35:30;;;;;;;2.92;0.82;;;;;;;27.75;71.56;98912.72;5063537;28;20016;-66
2021/08/18 06:37:56;;;;;;;3.92;1.05;;;;;;;27.81;69.51;98910.22;5063220;28;20059;-66
2021/08/18 06:40:21;;;;;;;3.65;1.10;;;;;;;27.93;69.89;98915.25;5063317;28;20021;-65
2021/08/18 06:42:46;;;;;;;4.22;0.95;;;;;;;27.84;65.34;98915.22;5063204;28;20504;-66
2021/08/18 06:45:13;;;;;;;2.47;1.00;;;;;;;27.44;66.88;98911.41;5063242;28;20046;-66
2021/08/18 06:47:39;;;;;;;7.20;1.00;;;;;;;27.29;63.65;98913.81;5063450;28;20024;-65
2021/08/18 06:50:05;;;;;;;2.72;0.90;;;;;;;27.08;64.70;98907.03;5063098;28;20025;-66
2021/08/18 06:52:31;;;;;;;2.05;0.80;;;;;;;27.10;65.65;98911.25;5062851;28;20055;-66
2021/08/18 06:54:57;;;;;;;3.20;0.90;;;;;;;27.06;66.05;98898.41;5063227;28;20076;-66
2021/08/18 06:57:22;;;;;;;8.85;3.08;;;;;;;26.81;63.35;98899.03;5063520;28;20456;-65
2021/08/18 06:59:47;;;;;;;10.32;3.20;;;;;;;25.72;61.17;98902.50;5063166;28;20511;-65
2021/08/18 07:02:13;;;;;;;12.05;2.95;;;;;;;25.09;63.89;98896.03;5063255;28;20106;-66
2021/08/18 07:04:38;;;;;;;6.82;2.50;;;;;;;25.02;64.97;98898.44;5063161;28;20040;-66
2021/08/18 07:07:04;;;;;;;8.40;2.38;;;;;;;25.07;64.17;98898.84;5062864;28;20029;-66
2021/08/18 07:09:29;;;;;;;8.80;2.55;;;;;;;25.04;66.15;98908.91;5062876;28;20101;-66
2021/08/18 07:11:55;;;;;;;12.23;2.63;;;;;;;24.91;63.18;98886.16;5062952;28;20524;-65
2021/08/18 07:14:20;;;;;;;9.82;2.72;;;;;;;24.68;61.86;98905.00;5063124;28;20056;-66
2021/08/18 07:16:45;;;;;;;8.40;2.60;;;;;;;24.46;61.53;98899.03;5063005;28;20024;-65
2021/08/18 07:19:12;;;;;;;7.60;2.95;;;;;;;24.36;64.58;98890.25;5062775;28;20032;-65
2021/08/18 07:21:37;;;;;;;10.30;3.05;;;;;;;24.12;61.41;98902.09;5062903;28;20078;-66
2021/08/18 07:24:03;;;;;;;13.52;3.28;;;;;;;24.02;64.07;98887.00;5062970;28;20021;-65
2021/08/18 07:26:28;;;;;;;9.82;3.30;;;;;;;23.74;64.11;98891.25;5062418;28;20029;-65
2021/08/18 07:28:55;;;;;;;12.25;3.58;;;;;;;23.37;63.19;98892.66;5061964;28;20028;-65
2021/08/18 07:31:21;;;;;;;16.23;3.45;;;;;;;22.89;63.32;98887.00;5062559;28;20032;-66
2021/08/18 07:33:46;;;;;;;11.85;3.30;;;;;;;22.20;64.09;98883.81;5064259;28;20021;-66
2021/08/18 07:36:11;;;;;;;12.88;3.30;;;;;;;21.80;67.02;98896.63;5066556;28;20463;-65
2021/08/18 07:38:37;;;;;;;10.82;3.28;;;;;;;21.51;66.37;98895.31;5066920;28;20028;-65
2021/08/18 07:41:02;;;;;;;11.80;3.55;;;;;;;21.45;66.69;98890.53;5066487;28;20029;-66
2021/08/18 07:43:27;;;;;;;10.40;4.05;;;;;;;21.29;67.49;98891.69;5066544;28;20081;-66
2021/08/18 07:45:53;;;;;;;11.23;3.42;;;;;;;21.24;68.87;98885.97;5066739;28;20033;-65
2021/08/18 07:48:19;;;;;;;11.30;3.38;;;;;;;21.40;68.60;98900.59;5066599;28;20079;-66
2021/08/18 07:50:44;;;;;;;14.57;2.80;;;;;;;21.63;67.55;98887.41;5066624;28;20021;-66
2021/08/18 07:53:10;;;;;;;9.50;3.50;;;;;;;21.63;68.55;98890.03;5066201;28;20473;-65
2021/08/18 07:55:35;;;;;;;9.50;3.45;;;;;;;21.51;69.04;98887.41;5066344;28;20024;-65
2021/08/18 07:58:01;;;;;;;10.27;3.20;;;;;;;21.42;67.30;98882.84;5066274;28;20021;-66
2021/08/18 08:00:26;;;;;;;11.48;3.42;;;;;;;21.34;67.92;98879.97;5066103;28;20025;-66
2021/08/18 08:02:51;;;;;;;12.45;3.22;;;;;;;21.65;66.53;98882.81;5066150;28;20465;-66
2021/08/18 08:05:17;;;;;;;14.23;3.50;;;;;;;21.65;66.08;98874.88;5066101;28;20055;-66
2021/08/18 08:07:44;;;;;;;12.65;4.05;;;;;;;21.92;66.74;98878.94;5066141;28;20130;-65
2021/08/18 08:10:12;;;;;;;10.07;3.17;;;;;;;21.97;64.98;98871.50;5066252;28;20029;-65
2021/08/18 08:12:39;;;;;;;8.60;3.17;;;;;;;21.94;64.92;98871.75;5065692;28;20096;-66
2021/08/18 08:15:10;;;;;;;11.57;3.28;;;;;;;22.32;65.93;98864.28;5066124;28;20021;-65
2021/08/18 08:17:36;;;;;;;;;;;;;;;22.90;62.25;98875.44;5066479;28;20032;-66
2021/08/18 08:20:02;;;;;;;8.20;3.33;;;;;;;23.25;60.30;98868.91;5065821;28;19908;-66
2021/08/18 08:22:27;;;;;;;10.07;3.60;;;;;;;23.39;61.86;98873.03;5064481;28;20269;-66
2021/08/18 08:24:53;;;;;;;6.13;2.47;;;;;;;23.63;60.61;98858.63;5065810;28;20017;-66
2021/08/18 08:27:18;;;;;;;8.10;3.00;;;;;;;23.54;61.83;98863.88;5065720;28;20469;-66
2021/08/18 08:29:43;;;;;;;12.07;3.88;;;;;;;23.46;60.11;98868.06;5064742;28;20039;-66
2021/08/18 08:32:10;;;;;;;6.13;2.92;;;;;;;23.79;59.80;98862.53;5065645;28;20020;-66
2021/08/18 08:34:35;;;;;;;10.23;2.97;;;;;;;24.60;59.34;98852.66;5065707;28;20024;-66
2021/08/18 08:37:01;;;;;;;10.70;2.90;;;;;;;24.93;58.83;98848.84;5065782;28;20024;-67
2021/08/18 08:39:26;;;;;;;12.15;3.47;;;;;;;25.12;59.53;98850.63;5065650;28;20036;-67
2021/08/18 08:41:51;;;;;;;11.40;3.17;;;;;;;25.05;58.67;98852.19;5064402;28;20036;-66
2021/08/18 08:44:23;;;;;;;10.70;2.97;;;;;;;24.64;58.27;98853.22;5065041;28;20116;-66
2021/08/18 08:46:51;;;;;;;10.50;3.42;;;;;;;24.54;58.91;98855.91;5065038;28;20032;-66
2021/08/18 08:49:19;;;;;;;8.80;3.05;;;;;;;24.45;58.93;98846.97;5065335;28;20029;-66
2021/08/18 08:51:49;;;;;;;9.80;2.90;;;;;;;24.23;57.45;98845.47;5065615;28;20048;-67
2021/08/18 08:54:16;;;;;;;10.02;3.03;;;;;;;23.91;57.97;98854.47;5065796;28;20025;-66
2021/08/18 08:56:42;;;;;;;13.45;3.42;;;;;;;23.96;59.09;98845.13;5065347;28;20017;-66
2021/08/18 08:59:08;;;;;;;12.07;2.72;;;;;;;24.39;56.09;98843.06;5065240;28;20061;-66
2021/08/18 09:01:59;;;;;;;11.90;2.92;;;;;;;25.05;55.69;98852.19;5065595;28;20237;-66
2021/08/18 09:04:46;;;;;;;6.68;2.50;;;;;;;25.77;53.59;98848.09;5064057;28;20385;-66
2021/08/18 09:07:17;;;;;;;11.88;3.20;;;;;;;26.15;52.04;98847.94;5064991;28;20029;-66
2021/08/18 09:10:00;;;;;;;6.30;2.50;;;;;;;26.34;51.21;98854.97;5064832;28;20079;-67
2021/08/18 09:12:39;;;;;;;7.38;2.47;;;;;;;25.92;50.74;98865.19;5065161;28;20043;-66
2021/08/18 09:15:17;;;;;;;9.32;3.65;;;;;;;25.20;51.98;98864.00;5064811;28;20021;-67
2021/08/18 09:17:43;;;;;;;9.45;3.85;;;;;;;24.66;53.65;98859.25;5064938;28;20051;-66
2021/08/18 09:20:11;;;;;;;8.63;2.60;;;;;;;24.11;53.18;98866.78;5064766;28;20029;-66
2021/08/18 09:22:46;;;;;;;10.40;3.03;;;;;;;23.51;55.59;98865.81;5064465;28;20467;-66
2021/08/18 09:25:26;;;;;;;12.60;3.10;;;;;;;23.07;56.33;98867.88;5064814;28;20029;-66
2021/08/18 09:27:56;;;;;;;9.98;2.78;;;;;;;22.62;58.65;98859.25;5065024;28;20495;-66
2021/08/18 09:30:43;;;;;;;9.48;3.30;;;;;;;22.12;57.99;98858.84;5064707;28;20289;-66
2021/08/18 09:33:18;;;;;;;9.57;3.22;;;;;;;21.83;59.42;98853.28;5064454;28;20029;-66
2021/08/18 09:35:52;;;;;;;8.02;3.47;;;;;;;21.85;58.04;98861.94;5064705;28;20016;-66
2021/08/18 09:38:18;;;;;;;5.25;2.47;;;;;;;21.87;59.32;98863.47;5064490;28;20032;-66
2021/08/18 09:40:46;;;;;;;8.40;2.88;;;;;;;21.84;60.16;98857.63;5064511;28;20021;-65
2021/08/18 09:43:14;;;;;;;9.00;2.78;;;;;;;21.88;60.19;98849.31;5064131;28;20021;-66
2021/08/18 09:45:42;;;;;;;13.63;3.50;;;;;;;21.78;57.26;98846.56;5064059;28;20021;-67
2021/08/18 09:48:18;;;;;;;13.45;3.70;;;;;;;21.60;58.39;98854.13;5064345;28;20088;-65
2021/08/18 09:50:51;;;;;;;7.90;2.92;;;;;;;21.60;58.77;98850.69;5064394;28;20035;-65
2021/08/18 09:53:19;;;;;;;10.57;3.28;;;;;;;22.62;58.25;98844.22;5064145;28;20032;-66
2021/08/18 09:55:52;;;;;;;10.35;3.63;;;;;;;24.07;55.59;98838.03;5064067;28;20021;-66
2021/08/18 09:58:27;;;;;;;6.40;2.65;;;;;;;24.04;52.44;98844.47;5064439;28;20093;-66
2021/08/18 10:00:55;;;;;;;10.18;3.00;;;;;;;23.36;55.52;98840.66;5064324;28;20056;-66
2021/08/18 10:03:21;;;;;;;9.38;3.28;;;;;;;22.77;54.11;98844.72;5063771;28;20093;-66
2021/08/18 10:05:49;;;;;;;9.25;3.20;;;;;;;22.26;56.66;98833.94;5064091;28;20021;-65
2021/08/18 10:08:14;;;;;;;10.95;3.47;;;;;;;22.00;56.19;98836.91;5063629;28;20048;-65
2021/08/18 10:10:42;;;;;;;10.20;2.97;;;;;;;21.69;57.66;98847.28;5063945;28;20401;-65
2021/08/18 10:13:09;;;;;;;9.32;2.80;;;;;;;21.34;56.46;98856.22;5063966;28;20017;-65
2021/08/18 10:15:35;;;;;;;8.52;2.92;;;;;;;20.79;57.44;98844.50;5063927;28;20040;-65
2021/08/18 10:18:01;;;;;;;11.73;2.58;;;;;;;20.56;60.74;98850.56;5063831;28;20093;-63
2021/08/18 10:20:27;;;;;;;11.23;3.58;;;;;;;20.59;61.84;98848.66;5063612;28;20033;-63
2021/08/18 10:23:01;;;;;;;6.65;2.35;;;;;;;20.72;62.50;98838.84;5063966;28;20021;-63
2021/08/18 10:25:44;;;;;;;7.18;2.70;;;;;;;20.84;59.50;98836.25;5078870;28;20024;-68
2021/08/18 10:28:09;;;;;;;12.00;2.75;;;;;;;20.88;61.17;98827.16;5063680;28;20154;-67
2021/08/18 10:30:51;;;;;;;8.55;2.97;;;;;;;21.32;61.08;98829.09;5063773;28;20044;-66
2021/08/18 10:33:50;;;;;;;9.40;2.10;;;;;;;21.30;58.88;98830.06;5063478;28;20084;-66
2021/08/18 10:36:41;;;;;;;8.68;2.75;;;;;;;21.06;59.97;98824.91;5063695;28;20029;-66
2021/08/18 10:39:19;;;;;;;11.77;2.83;;;;;;;21.17;58.30;98826.69;5063285;28;20028;-66
2021/08/18 10:42:01;;;;;;;10.13;2.33;;;;;;;21.26;57.38;98830.44;5063601;28;20044;-65
2021/08/18 10:44:34;;;;;;;8.23;1.95;;;;;;;21.15;59.50;98829.47;5063315;28;20040;-66
2021/08/18 10:47:18;;;;;;;8.57;2.00;;;;;;;20.99;59.01;98829.00;5063377;28;20028;-65
2021/08/18 10:49:46;;;;;;;7.70;2.58;;;;;;;21.20;59.55;98815.09;5063344;28;20024;-66
2021/08/18 10:52:12;;;;;;;7.72;2.30;;;;;;;21.68;57.39;98813.91;5061662;28;20080;-64
2021/08/18 10:54:44;;;;;;;8.73;2.30;;;;;;;21.70;54.05;98806.72;5063076;28;20017;-65
2021/08/18 10:57:39;;;;;;;13.57;2.67;;;;;;;21.28;54.33;98808.22;5063168;28;20028;-65
2021/08/18 11:00:16;;;;;;;8.00;2.38;;;;;;;20.75;56.25;98795.63;5062865;28;20025;-65
2021/08/18 11:03:07;;;;;;;11.93;2.90;;;;;;;20.38;57.90;98799.25;5062166;28;20029;-65
2021/08/18 11:05:38;;;;;;;7.75;2.45;;;;;;;19.94;57.46;98799.78;5063385;28;20025;-66
2021/08/18 11:08:31;;;;;;;8.50;2.75;;;;;;;19.76;59.16;98805.44;5063371;28;20049;-66
2021/08/18 11:10:57;;;;;;;6.13;2.65;;;;;;;19.52;58.45;98810.69;5051002;28;20115;-66
2021/08/18 11:14:06;;;;;;;8.85;2.50;;;;;;;19.56;60.11;98789.31;5067185;28;20025;-66
2021/08/18 11:16:32;;;;;;;7.78;2.08;;;;;;;19.50;59.20;98802.91;5067537;28;20364;-66
2021/08/18 11:19:04;;;;;;;11.27;2.50;;;;;;;19.37;59.61;98810.00;5067375;28;20646;-66
2021/08/18 11:21:35;;;;;;;6.68;2.13;;;;;;;19.21;59.71;98816.34;5067044;28;20361;-66
2021/08/18 11:24:04;;;;;;;3.53;2.03;;;;;;;19.16;57.39;98826.34;5066881;28;20112;-67
2021/08/18 11:26:33;;;;;;;6.68;2.33;;;;;;;19.15;58.93;98817.59;5066678;28;20126;-66
2021/08/18 11:29:00;;;;;;;6.43;2.05;;;;;;;19.36;59.82;98824.94;5066151;28;20024;-67
2021/08/18 11:31:48;;;;;;;7.00;2.25;;;;;;;19.47;60.02;98804.91;5066064;28;20093;-66
2021/08/18 11:34:26;;;;;;;7.43;2.15;;;;;;;19.56;59.74;98810.38;5066471;28;20029;-66